Detroit, Michigan
Traffic Map
Current Weather Conditions
Detroit, Michigan
Broken Clouds Haze
Broken Clouds
39°
Feels Like: 36°
Wind Chill: 36° Ceiling: 26000
Heat Index: 39° Visibility: 0.62mi
Dew Point: 39° Wind: 5mph
Humidity: 100% Direction: 120° (ESE)
Pressure: 29.67in Gusts: 0mph
Raw Report DataCYQG 211427Z 12004KT 5/8SM BR FEW032 BKN260 04/04 A2967 RMK SC1CI4 SLP053
Traffic Incident Summary
Active as of:
Severity:
Category:
InformationThere was an issue retrieving the traffic information for this location. Please try a different location or try again shortly.
Advertisements
Track Severe Weather on mobile